createdAt,value
2018-05-15T00:02:01.409Z,35.6
2018-05-15T00:07:01.413Z,35.4
2018-05-15T00:12:01.476Z,34.2
2018-05-15T00:17:01.384Z,34.3
2018-05-15T00:22:01.410Z,35.5
2018-05-15T00:27:01.446Z,36.1
2018-05-15T00:32:01.431Z,36.0
2018-05-15T00:37:01.434Z,36.7
2018-05-15T00:42:01.452Z,36.1
2018-05-15T00:47:01.409Z,35.5
2018-05-15T00:53:01.404Z,36.1
2018-05-15T00:58:01.412Z,36.5
2018-05-15T01:03:01.543Z,36.9
2018-05-15T01:08:01.447Z,37.7
2018-05-15T01:13:01.479Z,37.7
2018-05-15T01:18:01.401Z,38.3
2018-05-15T01:23:01.431Z,37.9
2018-05-15T01:28:01.434Z,37.8
2018-05-15T01:33:01.561Z,37.7
2018-05-15T01:38:01.427Z,37.6
2018-05-15T01:43:01.526Z,36.2
2018-05-15T01:48:01.417Z,37.0
2018-05-15T01:53:01.434Z,36.8
2018-05-15T01:58:01.441Z,36.0
2018-05-15T02:04:01.389Z,35.6
2018-05-15T02:09:01.585Z,36.0
2018-05-15T02:14:01.419Z,35.3
2018-05-15T02:19:01.451Z,35.0
2018-05-15T02:24:01.365Z,34.5
2018-05-15T02:29:01.525Z,34.5
2018-05-15T02:34:01.364Z,34.6
2018-05-15T02:39:01.629Z,34.3
2018-05-15T02:44:02.166Z,34.8
2018-05-15T02:49:01.451Z,35.9
2018-05-15T02:54:01.384Z,36.3
2018-05-15T02:59:01.453Z,35.9
2018-05-15T03:04:01.382Z,35.9
2018-05-15T03:09:01.486Z,35.4
2018-05-15T03:14:02.493Z,35.2
2018-05-15T03:19:01.459Z,35.3
2018-05-15T03:24:01.401Z,36.0
2018-05-15T03:29:01.402Z,36.4
2018-05-15T03:34:01.382Z,36.5
2018-05-15T03:39:01.835Z,36.3
2018-05-15T03:44:01.409Z,35.8
2018-05-15T03:49:01.451Z,35.6
2018-05-15T03:54:01.395Z,36.0
2018-05-15T03:59:01.462Z,36.6
2018-05-15T04:25:00.608Z,38.0
2018-05-15T04:30:00.529Z,38.0
2018-05-15T04:35:00.767Z,38.3
2018-05-15T04:40:00.551Z,37.8
2018-05-15T04:45:00.558Z,37.5
2018-05-15T04:50:00.531Z,37.4
2018-05-15T04:55:00.537Z,36.4
2018-05-15T05:00:00.694Z,35.8
2018-05-15T05:10:00.531Z,35.4
2018-05-15T05:15:00.533Z,34.4
2018-05-15T05:20:00.538Z,34.5
2018-05-15T05:25:00.537Z,34.1
2018-05-15T05:30:00.609Z,33.9
2018-05-15T05:35:00.533Z,33.6
2018-05-15T05:40:00.684Z,34.1
2018-05-15T05:45:00.552Z,33.8
2018-05-15T05:50:00.545Z,33.6
2018-05-15T05:55:00.577Z,33.1
2018-05-15T06:00:00.669Z,32.3
2018-05-15T06:05:00.544Z,31.3
2018-05-15T06:10:00.609Z,30.8
2018-05-15T06:15:00.580Z,29.9
2018-05-15T06:20:00.710Z,28.8
2018-05-15T06:25:00.581Z,27.8
2018-05-15T06:30:00.599Z,27.6
2018-05-15T06:35:00.602Z,26.1
2018-05-15T06:40:00.598Z,25.9
2018-05-15T06:45:00.622Z,26.1
2018-05-15T06:50:00.722Z,25.6
2018-05-15T06:55:00.600Z,24.1
2018-05-15T07:00:00.665Z,23.9
2018-05-15T07:05:00.592Z,23.3
2018-05-15T07:10:00.809Z,22.6
2018-05-15T07:15:00.604Z,22.8
2018-05-15T07:20:00.672Z,22.5
2018-05-15T07:30:00.673Z,22.8
2018-05-15T07:40:00.647Z,23.3
2018-05-15T07:45:00.615Z,23.2
2018-05-15T07:50:00.725Z,22.9
2018-05-15T07:55:00.577Z,22.6
2018-05-15T08:00:00.651Z,22.7
2018-05-15T08:05:00.616Z,22.5
2018-05-15T08:10:00.784Z,23.4
2018-05-15T08:15:00.699Z,23.8
2018-05-15T08:20:00.816Z,24.0
2018-05-15T08:25:05.613Z,23.7
2018-05-15T08:30:00.771Z,23.5
2018-05-15T08:35:00.628Z,23.7
2018-05-15T08:40:00.783Z,23.4
2018-05-15T08:45:00.674Z,22.9
2018-05-15T08:50:00.788Z,22.6
2018-05-15T08:55:00.707Z,22.5
2018-05-15T09:00:00.702Z,21.6
2018-05-15T09:10:00.659Z,22.0
2018-05-15T09:15:00.636Z,22.6
2018-05-15T09:20:00.773Z,22.6
2018-05-15T09:25:00.710Z,23.2
2018-05-15T09:30:00.705Z,23.0
2018-05-15T09:35:00.644Z,23.5
2018-05-15T09:40:00.704Z,24.4
2018-05-15T09:45:01.224Z,24.7
2018-05-15T09:50:00.781Z,24.8
2018-05-15T09:55:00.617Z,25.4
2018-05-15T10:00:00.654Z,25.0
2018-05-15T10:05:00.656Z,24.4
2018-05-15T10:10:00.824Z,24.9
2018-05-15T10:15:00.671Z,25.2
2018-05-15T10:20:01.068Z,25.0
2018-05-15T10:25:00.634Z,26.0
2018-05-15T10:30:00.989Z,25.6
2018-05-15T10:35:00.674Z,25.1
2018-05-15T10:40:00.677Z,25.3
2018-05-15T10:45:00.706Z,25.5
2018-05-15T10:50:00.741Z,24.6
2018-05-15T10:55:00.646Z,24.0
2018-05-15T11:00:00.694Z,25.3
2018-05-15T11:05:00.718Z,24.2
2018-05-15T11:10:00.762Z,24.1
2018-05-15T11:15:00.698Z,23.3
2018-05-15T11:35:00.772Z,20.8
2018-05-15T11:40:00.795Z,21.0
2018-05-15T11:45:00.707Z,21.3
2018-05-15T11:50:02.730Z,21.4
2018-05-15T11:55:00.690Z,20.9
2018-05-15T12:00:00.982Z,21.8
2018-05-15T12:05:00.839Z,21.5
2018-05-15T12:10:00.863Z,21.7
2018-05-15T12:15:00.904Z,21.9
2018-05-15T12:20:00.774Z,22.0
2018-05-15T12:25:00.715Z,21.2
2018-05-15T12:30:00.848Z,21.2
2018-05-15T12:35:00.719Z,20.5
2018-05-15T12:40:00.785Z,19.8
2018-05-15T12:45:00.751Z,19.6
2018-05-15T12:50:00.801Z,19.3
2018-05-15T12:55:00.728Z,19.5
2018-05-15T13:00:00.853Z,19.4
2018-05-15T13:05:00.807Z,20.8
2018-05-15T13:10:00.829Z,21.2
2018-05-15T13:15:00.952Z,21.5
2018-05-15T13:20:00.860Z,20.9
2018-05-15T13:25:00.717Z,22.0
2018-05-15T13:30:00.718Z,20.8
2018-05-15T13:35:00.703Z,20.2
2018-05-15T13:40:00.830Z,19.8
2018-05-15T13:45:00.711Z,20.3
2018-05-15T13:50:00.768Z,20.1
2018-05-15T13:55:00.717Z,20.2
2018-05-15T14:00:00.873Z,21.0
2018-05-15T14:05:00.749Z,21.2
2018-05-15T14:10:00.815Z,21.1
2018-05-15T14:15:00.744Z,20.4
2018-05-15T14:20:00.878Z,19.9
2018-05-15T14:25:00.749Z,18.6
2018-05-15T14:30:00.821Z,18.0
2018-05-15T14:35:00.734Z,17.1
2018-05-15T14:40:00.940Z,16.5
2018-05-15T14:45:00.734Z,16.2
2018-05-15T14:50:00.833Z,16.1
2018-05-15T14:55:00.732Z,16.0
2018-05-15T15:00:00.806Z,16.3
2018-05-15T15:05:00.696Z,15.7
2018-05-15T15:10:00.771Z,16.0
2018-05-15T15:15:00.761Z,16.5
2018-05-15T15:20:00.918Z,16.6
2018-05-15T15:25:00.749Z,16.7
2018-05-15T15:30:00.785Z,17.7
2018-05-15T15:35:00.786Z,17.8
2018-05-15T15:40:00.986Z,17.3
2018-05-15T15:45:00.857Z,18.2
2018-05-15T15:50:00.793Z,18.8
2018-05-15T15:55:00.795Z,18.3
2018-05-15T16:00:00.794Z,18.2
2018-05-15T16:05:00.866Z,18.1
2018-05-15T16:10:01.171Z,17.3
2018-05-15T16:15:00.873Z,16.6
2018-05-15T16:20:00.867Z,16.9
2018-05-15T16:25:00.817Z,17.1
2018-05-15T16:30:00.872Z,17.9
2018-05-15T16:35:00.821Z,17.9
2018-05-15T16:40:01.009Z,18.4
2018-05-15T16:45:00.859Z,18.2
2018-05-15T16:50:00.938Z,18.7
2018-05-15T16:55:00.807Z,18.8
2018-05-15T17:00:00.938Z,18.9
2018-05-15T17:05:00.774Z,19.3
2018-05-15T17:10:00.976Z,19.3
2018-05-15T17:15:00.784Z,19.0
2018-05-15T17:20:00.912Z,19.2
2018-05-15T17:25:00.777Z,19.6
2018-05-15T17:30:00.871Z,19.8
2018-05-15T17:35:00.793Z,19.9
2018-05-15T17:40:00.998Z,19.9
2018-05-15T17:45:00.852Z,20.2
2018-05-15T17:50:00.979Z,20.0
2018-05-15T17:55:00.793Z,20.0
2018-05-15T18:00:01.299Z,20.8
2018-05-15T18:05:00.796Z,21.8
2018-05-15T18:10:00.952Z,21.7
2018-05-15T18:15:00.856Z,23.0
2018-05-15T18:20:00.924Z,23.5
2018-05-15T18:25:00.809Z,23.5
2018-05-15T18:30:00.862Z,23.3
2018-05-15T18:35:00.799Z,23.8
2018-05-15T18:40:00.868Z,23.3
2018-05-15T18:45:00.783Z,23.2
2018-05-15T18:50:00.957Z,23.9
2018-05-15T18:55:00.812Z,24.7
2018-05-15T19:00:00.928Z,24.6
2018-05-15T19:05:00.809Z,25.8
2018-05-15T19:10:00.907Z,27.0
2018-05-15T19:15:00.841Z,27.4
2018-05-15T19:20:00.946Z,27.4
2018-05-15T19:25:00.812Z,27.8
2018-05-15T19:30:00.948Z,27.7
2018-05-15T19:35:00.816Z,27.4
2018-05-15T19:40:00.884Z,26.4
2018-05-15T19:45:01.163Z,25.7
2018-05-15T19:50:00.979Z,25.1
2018-05-15T19:55:00.927Z,24.2
2018-05-15T20:00:00.962Z,23.0
2018-05-15T20:05:00.829Z,23.2
2018-05-15T20:10:00.916Z,23.3
2018-05-15T20:15:00.831Z,23.3
2018-05-15T20:20:00.889Z,23.2
2018-05-15T20:25:00.826Z,22.5
2018-05-15T20:30:00.959Z,21.7
2018-05-15T20:35:01.216Z,20.8
2018-05-15T20:40:00.903Z,20.0
2018-05-15T20:45:00.841Z,19.1
2018-05-15T20:50:00.907Z,19.0
2018-05-15T20:55:00.837Z,18.7
2018-05-15T21:00:01.018Z,18.6
2018-05-15T21:05:00.892Z,17.9
2018-05-15T21:10:00.976Z,17.6
2018-05-15T21:15:01.051Z,17.6
2018-05-15T21:20:00.948Z,17.4
2018-05-15T21:25:00.890Z,16.9
2018-05-15T21:30:01.086Z,16.9
2018-05-15T21:35:00.893Z,17.0
2018-05-15T21:40:00.989Z,16.5
2018-05-15T21:45:00.891Z,16.3
2018-05-15T21:50:00.967Z,16.7
2018-05-15T21:55:00.907Z,16.6
2018-05-15T22:00:00.965Z,16.3
2018-05-15T22:10:01.081Z,16.8
2018-05-15T22:35:01.163Z,19.0
2018-05-15T22:40:01.168Z,18.9
2018-05-15T22:45:01.031Z,18.9
2018-05-15T22:50:01.126Z,18.7
2018-05-15T22:55:01.008Z,18.5
2018-05-15T23:00:01.098Z,18.2
2018-05-15T23:25:01.577Z,22.6
2018-05-15T23:31:01.415Z,23.6
2018-05-15T23:36:01.354Z,24.3
2018-05-15T23:41:01.414Z,23.7
2018-05-15T23:46:01.321Z,23.3
2018-05-15T23:51:01.363Z,23.0
2018-05-15T23:56:01.392Z,22.6
